Latest Weather Observations for Swan Hill

IDN60801

Issued at 2:33 pm EST Thursday 29 September 2016 (issued every 30 minutes, with the page automatically refreshed every 10 minutes)

About weather observations | Map of weather stations | Latest weather observations for NSW | Other Formats
Station Details ID: 077094 Name: SWAN HILL AERODROME Lat: -35.38 Lon: 143.54 Height: 71.0 m
Data from the previous 72 hours. | See also: Recent months at Swan Hill
Date/Time
EST
Temp
°C
App
Temp
°C
Dew
Point
°C
Rel
Hum
%
Delta-T
°C
Wind Press
QNH
hPa
Press
MSL
hPa
Rain since
9am
mm
Dir  Spd
km/h
Gust
km/h
Spd
kts
Gust
kts
29/02:30pm 10.4 3.2 7.6 83 1.4 N 35 46 19 25 987.8 987.8 1.2
29/02:11pm 10.3 3.6 7.4 82 1.4 N 32 52 17 28 988.2 988.2 1.2
29/02:00pm 9.9 3.6 7.2 83 1.3 N 30 44 16 24 988.3 988.3 1.0
29/01:30pm 9.5 3.2 5.9 78 1.7 NNE 28 35 15 19 988.8 988.7 0.4
29/01:03pm 8.7 1.0 5.4 80 1.5 N 35 54 19 29 989.4 989.3 0.2
29/01:00pm 9.0 0.6 5.4 78 1.7 N 39 54 21 29 989.7 989.6 0.2
29/12:32pm 11.4 3.1 6.1 70 2.5 N 39 57 21 31 990.0 989.9 0.0
29/12:30pm 11.4 2.6 5.7 68 2.7 N 41 54 22 29 989.8 989.7 0.0
29/12:02pm 12.3 3.2 3.8 56 3.8 NNW 41 59 22 32 990.0 989.9 0.0
29/12:00pm 12.4 3.3 3.9 56 3.9 N 41 54 22 29 990.1 990.0 0.0
29/11:30am 12.7 3.1 3.6 54 4.1 NNW 43 54 23 29 990.2 990.1 0.0
29/11:10am 13.0 5.0 5.7 61 3.4 NNW 37 56 20 30 990.5 990.4 0.0
29/11:00am 12.9 4.6 4.3 56 4.0 N 37 52 20 28 990.6 990.5 0.0
29/10:30am 13.2 4.6 4.6 56 4.0 N 39 54 21 29 991.1 991.0 0.0
29/10:14am 12.7 5.5 4.9 59 3.6 N 32 50 17 27 991.2 991.1 0.0
29/10:00am 12.4 3.5 4.9 60 3.5 N 41 52 22 28 991.4 991.3 0.0
29/09:47am 12.0 4.5 4.2 59 3.5 NNW 33 52 18 28 991.6 991.5 0.0
29/09:30am 12.0 4.1 4.5 60 3.4 NNW 35 48 19 26 991.9 991.8 0.0
29/09:00am 11.3 3.4 4.5 63 3.1 NNW 35 46 19 25 991.8 991.7 7.4
29/08:30am 10.7 3.4 4.6 66 2.8 NNW 32 44 17 24 992.2 992.1 7.4
29/08:00am 10.1 3.6 4.7 69 2.5 N 28 37 15 20 992.3 992.2 7.4
29/07:30am 9.3 3.6 4.7 73 2.1 NNW 24 37 13 20 992.4 992.3 7.4
29/07:00am 8.3 3.5 4.9 79 1.5 NNW 19 28 10 15 992.3 992.2 7.4
29/06:30am 7.3 2.5 4.8 84 1.1 NNW 19 22 10 12 992.1 992.0 7.4
29/06:00am 7.4 3.1 5.2 86 1.0 NNW 17 24 9 13 992.0 991.9 7.4
29/05:30am 8.3 3.1 5.6 83 1.2 NW 22 32 12 17 991.8 991.7 7.4
29/05:00am 9.3 3.1 6.2 81 1.4 NW 28 35 15 19 991.9 991.8 7.4
29/04:30am 9.6 4.3 6.7 82 1.4 NNW 24 32 13 17 991.8 991.7 7.4
29/04:00am 9.8 4.9 6.9 82 1.4 NNW 22 30 12 16 991.7 991.6 7.4
29/03:30am 9.8 3.7 6.7 81 1.5 NW 28 35 15 19 991.5 991.4 7.4
29/03:00am 10.4 4.5 7.3 81 1.5 NW 28 37 15 20 991.3 991.2 7.4
29/02:30am 11.4 6.3 9.3 87 1.1 NNW 26 35 14 19 991.4 991.3 7.4
29/02:00am 12.0 7.5 10.1 88 1.0 NNW 24 35 13 19 991.8 991.7 7.4
29/01:30am 12.4 8.9 11.0 91 0.7 N 20 28 11 15 992.1 992.0 7.4
29/01:00am 12.5 9.0 10.9 90 0.8 NW 20 30 11 16 992.1 992.0 7.4
29/12:34am 12.6 7.6 11.0 90 0.8 NW 28 41 15 22 992.1 992.0 7.4
29/12:30am 12.7 7.0 11.1 90 0.8 NW 32 44 17 24 992.2 992.1 7.4
29/12:17am 13.3 7.2 11.7 90 0.9 NNW 35 50 19 27 992.6 992.5 7.4
29/12:12am 13.7 8.1 12.1 90 0.9 NNW 33 46 18 25 992.5 992.4 7.4
29/12:00am 14.0 8.0 12.2 89 1.0 N 35 48 19 26 992.2 992.1 7.4
 
Date/Time
EST
Temp
°C
App
Temp
°C
Dew
Point
°C
Rel
Hum
%
Delta-T
°C
Wind Press
QNH
hPa
Press
MSL
hPa
Rain since
9am
mm
Dir  Spd
km/h
Gust
km/h
Spd
kts
Gust
kts
28/11:32pm 13.3 7.7 11.5 89 1.0 NNE 32 48 17 26 992.6 992.5 6.4
28/11:30pm 13.3 7.5 11.4 88 1.0 NNE 33 48 18 26 992.5 992.4 6.2
28/11:16pm 13.1 7.2 11.0 87 1.1 NNE 33 50 18 27 992.5 992.4 5.8
28/11:04pm 13.1 7.6 10.6 85 1.3 NNE 30 43 16 23 992.5 992.4 4.8
28/11:00pm 13.3 7.5 10.8 85 1.3 NNE 32 44 17 24 992.9 992.8 4.4
28/10:48pm 13.5 8.0 10.5 82 1.6 NNE 30 39 16 21 993.5 993.5 3.4
28/10:30pm 14.4 9.1 10.0 75 2.3 NNE 28 41 15 22 993.4 993.4 1.2
28/10:00pm 14.9 8.4 9.1 68 3.0 NE 33 50 18 27 992.8 992.7 0.6
28/09:31pm 14.4 8.2 9.2 71 2.7 ENE 32 50 17 27 993.0 992.9 0.6
28/09:30pm 14.2 8.0 9.2 72 2.6 ENE 32 44 17 24 993.0 992.9 0.6
28/09:00pm 13.9 7.2 9.5 75 2.3 ENE 35 48 19 26 993.7 993.7 0.6
28/08:30pm 14.0 7.9 9.6 75 2.3 ENE 32 46 17 25 995.1 995.1 0.4
28/08:00pm 14.5 8.3 9.3 71 2.7 NE 32 48 17 26 996.4 996.4 0.0
28/07:30pm 15.4 9.0 8.6 64 3.5 NE 32 44 17 24 996.9 996.9 0.0
28/07:00pm 16.7 9.9 7.1 53 4.8 NE 32 43 17 23 997.4 997.4 0.0
28/06:30pm 17.0 10.6 6.8 51 5.1 NE 30 44 16 24 998.4 998.4 0.0
28/06:02pm 17.3 10.5 6.8 50 5.2 NE 32 50 17 27 999.0 999.0 0.0
28/06:00pm 17.3 10.4 6.5 49 5.4 NE 32 48 17 26 998.9 998.9 0.0
28/05:30pm 17.4 11.0 6.9 50 5.2 NE 30 39 16 21 999.8 999.8 0.0
28/05:00pm 17.8 10.4 6.7 48 5.6 NNE 35 50 19 27 1000.0 1000.0 0.0
28/04:40pm 18.3 10.9 6.8 47 5.8 NE 35 54 19 29 1000.2 1000.2 0.0
28/04:30pm 17.8 9.9 6.3 47 5.7 NE 37 54 20 29 1000.2 1000.2 0.0
28/04:05pm 18.4 11.0 6.6 46 5.9 NE 35 56 19 30 1000.6 1000.6 0.0
28/04:00pm 18.6 11.3 7.1 47 5.8 NE 35 52 19 28 1000.9 1000.9 0.0
28/03:30pm 19.2 12.1 6.3 43 6.4 NNE 33 48 18 26 1001.4 1001.4 0.0
28/03:00pm 19.5 11.7 6.6 43 6.5 NNE 37 56 20 30 1002.7 1002.7 0.0
28/02:53pm 19.5 11.5 5.9 41 6.7 NNE 37 56 20 30 1002.8 1002.8 0.0
28/02:30pm 19.4 12.0 6.8 44 6.4 NNE 35 48 19 26 1003.2 1003.2 0.0
28/02:00pm 18.7 10.9 6.5 45 6.1 NE 37 50 20 27 1004.0 1003.9 0.0
28/01:32pm 19.3 12.0 7.1 45 6.2 NE 35 54 19 29 1004.9 1004.8 0.0
28/01:30pm 19.0 11.2 6.8 45 6.1 NE 37 54 20 29 1005.1 1005.0 0.0
28/01:16pm 19.0 12.0 6.2 43 6.4 NNE 32 52 17 28 1005.4 1005.4 0.0
28/01:00pm 19.1 12.0 6.6 44 6.3 NNE 33 46 18 25 1005.7 1005.7 0.0
28/12:39pm 19.1 13.2 7.5 47 5.9 NE 28 46 15 25 1006.6 1006.6 0.0
28/12:30pm 18.7 12.6 6.5 45 6.1 NE 28 39 15 21 1007.0 1007.0 0.0
28/12:00pm 18.8 12.5 7.3 47 5.9 NNE 30 37 16 20 1008.1 1008.1 0.0
28/11:30am 17.9 11.8 6.4 47 5.7 NNE 28 37 15 20 1008.8 1008.8 0.0
28/11:00am 17.4 10.9 6.3 48 5.5 NNE 30 37 16 20 1010.1 1010.1 0.0
28/10:30am 17.1 11.5 7.2 52 5.0 NNE 26 33 14 18 1010.9 1010.9 0.0
28/10:00am 16.1 10.0 6.5 53 4.7 NNE 28 39 15 21 1011.5 1011.5 0.0
28/09:30am 15.6 11.2 7.4 58 4.1 NNE 20 32 11 17 1012.0 1012.0 0.0
28/09:00am 14.3 9.8 6.9 61 3.6 NNE 20 30 11 16 1012.3 1012.3 0.2
28/08:30am 12.6 8.3 6.9 68 2.7 NNE 19 24 10 13 1012.5 1012.5 0.2
28/08:00am 11.0 7.9 7.1 77 1.9 NE 13 19 7 10 1012.6 1012.6 0.2
28/07:30am 8.5 5.1 6.1 85 1.1 NE 13 17 7 9 1012.6 1012.6 0.2
28/07:00am 6.7 3.5 5.0 89 0.7 ENE 11 13 6 7 1012.8 1012.8 0.2
28/06:30am 5.2 2.1 3.7 90 0.6 E 9 13 5 7 1012.9 1012.9 0.2
28/06:00am 5.1 2.0 3.6 90 0.6 E 9 9 5 5 1012.8 1012.8 0.2
28/05:30am 5.0 1.6 3.8 92 0.5 E 11 13 6 7 1012.8 1012.8 0.2
28/05:00am 4.5 1.3 3.2 91 0.5 E 9 9 5 5 1012.7 1012.7 0.2
28/04:30am 4.5 1.3 3.3 92 0.5 E 9 11 5 6 1012.6 1012.6 0.2
28/04:00am 4.3 1.1 3.1 92 0.5 SW 9 11 5 6 1012.7 1012.7 0.2
28/03:30am 4.1 1.3 2.9 92 0.5 SW 7 9 4 5 1012.9 1012.9 0.2
28/03:00am 4.4 1.6 3.2 92 0.5 SW 7 9 4 5 1013.1 1013.1 0.2
28/02:30am 4.5 1.9 3.2 91 0.5 SW 6 6 3 3 1013.2 1013.2 0.2
28/02:00am 4.7 2.1 3.4 91 0.5 SW 6 6 3 3 1013.3 1013.3 0.2
28/01:30am 5.6 3.2 4.4 92 0.5 SW 6 6 3 3 1013.6 1013.6 0.2
28/01:00am 5.0 3.6 3.5 90 0.6 CALM 0 0 0 0 1013.9 1013.9 0.2
28/12:30am 5.3 3.9 3.6 89 0.7 CALM 0 0 0 0 1014.1 1014.1 0.2
28/12:00am 5.6 4.3 3.9 89 0.7 CALM 0 0 0 0 1014.2 1014.2 0.2
 
Date/Time
EST
Temp
°C
App
Temp
°C
Dew
Point
°C
Rel
Hum
%
Delta-T
°C
Wind Press
QNH
hPa
Press
MSL
hPa
Rain since
9am
mm
Dir  Spd
km/h
Gust
km/h
Spd
kts
Gust
kts
27/11:30pm 6.0 4.7 4.2 88 0.8 CALM 0 0 0 0 1014.3 1014.3 0.2
27/11:00pm 6.5 4.2 4.7 88 0.8 SW 6 6 3 3 1014.4 1014.4 0.2
27/10:30pm 6.6 4.3 4.8 88 0.8 SW 6 7 3 4 1014.4 1014.4 0.2
27/10:00pm 6.4 5.2 4.4 87 0.9 CALM 0 0 0 0 1014.5 1014.5 0.2
27/09:30pm 6.9 5.7 4.7 86 1.0 CALM 0 0 0 0 1014.6 1014.6 0.2
27/09:00pm 7.6 6.5 5.2 85 1.1 CALM 0 0 0 0 1014.6 1014.6 0.2
27/08:30pm 8.7 7.7 5.8 82 1.3 CALM 0 0 0 0 1014.4 1014.4 0.2
27/08:00pm 9.3 8.2 5.1 75 1.9 CALM 0 0 0 0 1014.3 1014.3 0.2
27/07:30pm 10.1 9.1 5.7 74 2.0 CALM 0 0 0 0 1014.3 1014.3 0.2
27/07:00pm 11.2 9.9 6.1 71 2.4 SW 2 6 1 3 1014.3 1014.3 0.2
27/06:30pm 12.6 11.6 5.5 62 3.3 CALM 0 0 0 0 1014.1 1014.1 0.2
27/06:00pm 14.4 11.6 5.0 53 4.4 SW 9 13 5 7 1014.0 1014.0 0.2
27/05:30pm 15.5 12.2 4.8 49 5.0 SSW 11 15 6 8 1014.0 1014.0 0.2
27/05:00pm 16.4 13.0 3.8 43 5.9 SW 11 17 6 9 1013.6 1013.6 0.2
27/04:30pm 16.3 11.2 4.0 44 5.7 WSW 20 28 11 15 1013.4 1013.4 0.2
27/04:00pm 16.0 11.0 3.4 43 5.8 W 19 26 10 14 1013.3 1013.3 0.2
27/03:30pm 15.7 10.4 2.8 42 5.8 W 20 32 11 17 1013.2 1013.2 0.2
27/03:00pm 16.7 10.9 4.4 44 5.8 W 24 35 13 19 1013.4 1013.4 0.2
27/02:30pm 15.5 9.6 3.9 46 5.4 W 24 33 13 18 1013.5 1013.5 0.2
27/02:00pm 16.2 10.4 4.6 46 5.5 W 24 33 13 18 1013.7 1013.7 0.2
27/01:30pm 15.7 10.3 4.4 47 5.3 WSW 22 32 12 17 1013.9 1013.9 0.2
27/01:00pm 15.4 9.8 5.3 51 4.8 WSW 24 32 13 17 1014.2 1014.2 0.0
27/12:30pm 14.6 9.2 4.3 50 4.8 SW 22 33 12 18 1014.6 1014.6 0.0
27/12:00pm 15.1 9.5 5.6 53 4.5 SW 24 37 13 20 1014.8 1014.8 0.0
27/11:30am 14.2 7.6 4.2 51 4.6 WSW 28 37 15 20 1014.8 1014.8 0.0
27/11:00am 13.6 6.9 3.9 52 4.4 WSW 28 37 15 20 1014.8 1014.8 0.0
27/10:30am 13.3 7.9 4.7 56 4.0 SW 22 33 12 18 1014.9 1014.9 0.0
27/10:00am 12.8 6.8 5.2 60 3.5 WSW 26 33 14 18 1014.9 1014.9 0.0
27/09:30am 11.8 6.0 6.3 69 2.6 SW 26 33 14 18 1015.0 1015.0 0.0
27/09:00am 10.7 5.5 7.2 79 1.7 WSW 24 32 13 17 1014.9 1014.9 1.0
27/08:30am 9.2 3.9 6.8 85 1.1 WSW 24 30 13 16 1014.8 1014.8 1.0
27/08:00am 7.3 2.5 5.8 90 0.7 W 20 26 11 14 1014.4 1014.4 1.0
27/07:30am 6.6 2.4 5.6 93 0.4 W 17 22 9 12 1014.1 1014.1 1.0
27/07:00am 4.9 1.1 4.0 94 0.4 WNW 13 15 7 8 1013.6 1013.6 1.0
27/06:30am 3.7 0.1 2.8 94 0.4 WNW 11 13 6 7 1013.2 1013.2 1.0
27/06:00am 3.2 -0.9 2.3 94 0.4 WNW 13 17 7 9 1013.0 1013.0 1.0
27/05:30am 2.7 -1.1 1.7 93 0.4 WNW 11 15 6 8 1012.5 1012.5 1.0
27/05:00am 2.9 -1.3 1.9 93 0.4 WNW 13 15 7 8 1012.5 1012.5 1.0
27/04:30am 3.2 -0.2 2.0 92 0.5 W 9 11 5 6 1012.2 1012.2 1.0
27/04:00am 4.1 0.5 2.9 92 0.5 W 11 15 6 8 1012.1 1012.1 1.0
27/03:30am 4.0 0.4 2.8 92 0.5 WSW 11 13 6 7 1012.2 1012.2 1.0
27/03:00am 4.9 1.8 3.6 91 0.5 SW 9 15 5 8 1012.1 1012.1 1.0
27/02:30am 5.2 1.8 3.9 91 0.5 WSW 11 15 6 8 1012.1 1012.1 1.0
27/02:00am 5.8 2.1 4.4 91 0.6 W 13 17 7 9 1012.1 1012.1 1.0
27/01:30am 5.8 2.1 4.6 92 0.5 WNW 13 19 7 10 1012.4 1012.4 1.0
27/01:00am 5.8 2.2 4.8 93 0.4 NW 13 15 7 8 1012.5 1012.5 1.0
27/12:30am 5.7 2.0 4.5 92 0.5 NW 13 15 7 8 1012.4 1012.4 1.0
27/12:00am 6.0 2.4 4.8 92 0.5 NW 13 13 7 7 1012.4 1012.4 1.0
 
Date/Time
EST
Temp
°C
App
Temp
°C
Dew
Point
°C
Rel
Hum
%
Delta-T
°C
Wind Press
QNH
hPa
Press
MSL
hPa
Rain since
9am
mm
Dir  Spd
km/h
Gust
km/h
Spd
kts
Gust
kts
26/11:30pm 6.3 3.4 4.8 90 0.7 WSW 9 11 5 6 1012.6 1012.6 1.0
26/11:00pm 7.6 5.3 5.6 87 0.9 SW 7 9 4 5 1012.6 1012.6 1.0
26/10:30pm 9.3 6.9 7.1 86 1.0 SW 9 13 5 7 1012.6 1012.6 1.0
26/10:00pm 9.6 7.7 7.7 88 0.9 S 7 11 4 6 1012.3 1012.3 1.0
26/09:30pm 9.8 7.6 7.7 87 1.0 SSW 9 15 5 8 1012.3 1012.3 1.0
26/09:00pm 10.3 7.0 8.2 87 1.0 SSW 15 24 8 13 1012.0 1012.0 1.0
26/08:30pm 10.8 4.8 8.6 86 1.1 SW 30 43 16 23 1011.4 1011.4 1.0
26/08:08pm 11.6 7.4 8.3 80 1.6 WNW 20 37 11 20 1010.9 1010.9 0.8
26/08:00pm 10.8 9.1 8.4 85 1.2 N 7 9 4 5 1010.2 1010.2 0.8
26/07:30pm 10.7 8.6 8.1 84 1.3 N 9 13 5 7 1010.1 1010.1 0.8
26/07:00pm 12.1 9.1 7.8 75 2.1 W 13 19 7 10 1009.7 1009.7 0.8
26/06:30pm 15.1 10.6 6.1 55 4.3 WSW 19 28 10 15 1010.0 1010.0 0.0
26/06:00pm 15.0 13.3 7.5 61 3.7 W 6 17 3 9 1009.5 1009.5 0.0
26/05:30pm 16.0 11.6 6.7 54 4.6 NW 19 32 10 17 1009.3 1009.3 0.0
26/05:00pm 17.2 12.9 5.2 45 5.8 NW 17 22 9 12 1009.1 1009.1 0.0
26/04:30pm 17.3 12.6 5.9 47 5.6 NW 20 26 11 14 1009.4 1009.4 0.0
26/04:00pm 17.9 12.9 4.5 41 6.4 NW 20 24 11 13 1009.7 1009.7 0.0
26/03:30pm 18.0 12.9 3.9 39 6.7 NW 20 32 11 17 1009.9 1009.9 0.0
26/03:00pm 18.4 12.9 3.8 38 6.9 WNW 22 32 12 17 1010.3 1010.3 0.0

Other Formats:

Comma delimited format used in spreadsheet applications
http://www.bom.gov.au/fwo/IDN60801/IDN60801.94843.axf

JavaScript Object Notation format (JSON) in row-major order
http://www.bom.gov.au/fwo/IDN60801/IDN60801.94843.json